sensor_id;sensor_type;location;lat;lon;timestamp;temperature;humidity
55331;DHT22;58851;42.984;20.336;2022-09-01T00:01:38;461.10;2380.80
55331;DHT22;58851;42.984;20.336;2022-09-01T00:04:10;461.10;2380.80
55331;DHT22;58851;42.984;20.336;2022-09-01T00:06:37;461.10;2380.80
55331;DHT22;58851;42.984;20.336;2022-09-01T00:09:14;461.10;2380.80
55331;DHT22;58851;42.984;20.336;2022-09-01T00:11:42;461.10;2380.80
55331;DHT22;58851;42.984;20.336;2022-09-01T00:14:10;461.10;2380.80
55331;DHT22;58851;42.984;20.336;2022-09-01T00:16:36;461.00;2380.80
55331;DHT22;58851;42.984;20.336;2022-09-01T00:19:02;461.00;2380.80
55331;DHT22;58851;42.984;20.336;2022-09-01T00:21:38;461.10;2380.80
55331;DHT22;58851;42.984;20.336;2022-09-01T00:24:05;461.00;2380.80
55331;DHT22;58851;42.984;20.336;2022-09-01T00:26:31;461.00;2380.80
55331;DHT22;58851;42.984;20.336;2022-09-01T00:28:57;461.00;2380.80
55331;DHT22;58851;42.984;20.336;2022-09-01T00:31:24;461.10;2380.80
55331;DHT22;58851;42.984;20.336;2022-09-01T00:33:50;461.10;2380.80
55331;DHT22;58851;42.984;20.336;2022-09-01T00:36:17;461.10;2380.80
55331;DHT22;58851;42.984;20.336;2022-09-01T00:38:44;461.10;2380.80
55331;DHT22;58851;42.984;20.336;2022-09-01T00:41:10;461.00;2380.80
55331;DHT22;58851;42.984;20.336;2022-09-01T00:46:04;460.80;2380.80
55331;DHT22;58851;42.984;20.336;2022-09-01T00:48:30;460.80;2380.80
55331;DHT22;58851;42.984;20.336;2022-09-01T00:50:57;460.80;2380.80
55331;DHT22;58851;42.984;20.336;2022-09-01T00:53:23;436.00;2355.20
55331;DHT22;58851;42.984;20.336;2022-09-01T00:55:50;435.80;2355.20
55331;DHT22;58851;42.984;20.336;2022-09-01T00:58:16;435.80;2355.20
55331;DHT22;58851;42.984;20.336;2022-09-01T01:00:43;435.80;2355.20
55331;DHT22;58851;42.984;20.336;2022-09-01T01:03:12;435.70;2355.20
55331;DHT22;58851;42.984;20.336;2022-09-01T01:05:41;435.80;2355.20
55331;DHT22;58851;42.984;20.336;2022-09-01T01:08:10;435.70;2355.20
55331;DHT22;58851;42.984;20.336;2022-09-01T01:10:39;435.70;2355.20
55331;DHT22;58851;42.984;20.336;2022-09-01T01:13:15;435.70;2355.20
55331;DHT22;58851;42.984;20.336;2022-09-01T01:15:43;435.60;2355.20
55331;DHT22;58851;42.984;20.336;2022-09-01T01:18:11;435.60;2355.20
55331;DHT22;58851;42.984;20.336;2022-09-01T01:20:37;435.60;2355.20
55331;DHT22;58851;42.984;20.336;2022-09-01T01:23:39;435.50;2355.20
55331;DHT22;58851;42.984;20.336;2022-09-01T01:26:08;435.40;2355.20
55331;DHT22;58851;42.984;20.336;2022-09-01T01:28:39;435.40;2355.20
55331;DHT22;58851;42.984;20.336;2022-09-01T01:31:09;435.40;2355.20
55331;DHT22;58851;42.984;20.336;2022-09-01T01:33:47;435.50;2355.20
55331;DHT22;58851;42.984;20.336;2022-09-01T01:36:20;435.40;2355.20
55331;DHT22;58851;42.984;20.336;2022-09-01T01:38:50;435.50;2355.20
55331;DHT22;58851;42.984;20.336;2022-09-01T01:41:17;435.50;2355.20
55331;DHT22;58851;42.984;20.336;2022-09-01T01:43:45;435.50;2355.20
55331;DHT22;58851;42.984;20.336;2022-09-01T01:46:13;435.50;2355.20
55331;DHT22;58851;42.984;20.336;2022-09-01T01:48:41;435.40;2355.20
55331;DHT22;58851;42.984;20.336;2022-09-01T01:51:09;435.50;2355.20
55331;DHT22;58851;42.984;20.336;2022-09-01T01:53:37;435.40;2355.20
55331;DHT22;58851;42.984;20.336;2022-09-01T01:56:03;435.40;2355.20
55331;DHT22;58851;42.984;20.336;2022-09-01T01:58:31;435.30;2355.20
55331;DHT22;58851;42.984;20.336;2022-09-01T02:00:58;435.30;2355.20
55331;DHT22;58851;42.984;20.336;2022-09-01T02:03:26;435.20;2355.20
55331;DHT22;58851;42.984;20.336;2022-09-01T02:05:55;435.20;2355.20
55331;DHT22;58851;42.984;20.336;2022-09-01T02:08:23;435.20;2355.20
55331;DHT22;58851;42.984;20.336;2022-09-01T02:10:52;435.20;2355.20
55331;DHT22;58851;42.984;20.336;2022-09-01T02:13:21;435.20;2355.20
55331;DHT22;58851;42.984;20.336;2022-09-01T02:15:52;410.50;2355.20
55331;DHT22;58851;42.984;20.336;2022-09-01T02:18:28;410.40;2355.20
55331;DHT22;58851;42.984;20.336;2022-09-01T02:20:56;410.40;2355.20
55331;DHT22;58851;42.984;20.336;2022-09-01T02:23:23;410.30;2355.20
55331;DHT22;58851;42.984;20.336;2022-09-01T02:25:52;410.30;2355.20
55331;DHT22;58851;42.984;20.336;2022-09-01T02:28:19;410.30;2355.20
55331;DHT22;58851;42.984;20.336;2022-09-01T02:30:49;410.30;2355.20
55331;DHT22;58851;42.984;20.336;2022-09-01T02:33:17;410.30;2355.20
55331;DHT22;58851;42.984;20.336;2022-09-01T02:36:06;410.10;2355.20
55331;DHT22;58851;42.984;20.336;2022-09-01T02:38:33;410.00;2355.20
55331;DHT22;58851;42.984;20.336;2022-09-01T02:41:01;409.90;2355.20
55331;DHT22;58851;42.984;20.336;2022-09-01T02:43:28;410.10;2355.20
55331;DHT22;58851;42.984;20.336;2022-09-01T02:45:58;410.10;2355.20
55331;DHT22;58851;42.984;20.336;2022-09-01T02:48:27;410.20;2355.20
55331;DHT22;58851;42.984;20.336;2022-09-01T02:51:04;410.20;2355.20
55331;DHT22;58851;42.984;20.336;2022-09-01T02:53:31;410.10;2355.20
55331;DHT22;58851;42.984;20.336;2022-09-01T02:56:03;410.10;2355.20
55331;DHT22;58851;42.984;20.336;2022-09-01T02:58:34;410.00;2355.20
55331;DHT22;58851;42.984;20.336;2022-09-01T03:01:17;410.10;2355.20
55331;DHT22;58851;42.984;20.336;2022-09-01T03:03:46;410.10;2355.20
55331;DHT22;58851;42.984;20.336;2022-09-01T03:06:12;410.20;2355.20
55331;DHT22;58851;42.984;20.336;2022-09-01T03:08:39;410.10;2355.20
55331;DHT22;58851;42.984;20.336;2022-09-01T03:11:08;410.10;2355.20
55331;DHT22;58851;42.984;20.336;2022-09-01T03:13:37;410.10;2355.20
55331;DHT22;58851;42.984;20.336;2022-09-01T03:16:04;409.90;2355.20
55331;DHT22;58851;42.984;20.336;2022-09-01T03:18:30;409.90;2355.20
55331;DHT22;58851;42.984;20.336;2022-09-01T03:20:56;409.90;2355.20
55331;DHT22;58851;42.984;20.336;2022-09-01T03:23:22;409.90;2355.20
55331;DHT22;58851;42.984;20.336;2022-09-01T03:25:50;409.90;2355.20
55331;DHT22;58851;42.984;20.336;2022-09-01T03:28:16;410.00;2355.20
55331;DHT22;58851;42.984;20.336;2022-09-01T03:30:45;410.10;2355.20
55331;DHT22;58851;42.984;20.336;2022-09-01T03:33:11;410.00;2355.20
55331;DHT22;58851;42.984;20.336;2022-09-01T03:35:37;409.90;2355.20
55331;DHT22;58851;42.984;20.336;2022-09-01T03:38:03;409.80;2355.20
55331;DHT22;58851;42.984;20.336;2022-09-01T03:40:33;409.80;2355.20
55331;DHT22;58851;42.984;20.336;2022-09-01T03:43:01;409.60;2355.20
55331;DHT22;58851;42.984;20.336;2022-09-01T03:45:28;409.80;2355.20
55331;DHT22;58851;42.984;20.336;2022-09-01T03:47:55;409.80;2355.20
55331;DHT22;58851;42.984;20.336;2022-09-01T03:50:23;409.80;2355.20
55331;DHT22;58851;42.984;20.336;2022-09-01T03:52:54;409.70;2355.20
55331;DHT22;58851;42.984;20.336;2022-09-01T03:55:27;384.90;2329.60
55331;DHT22;58851;42.984;20.336;2022-09-01T03:57:56;384.90;2329.60
55331;DHT22;58851;42.984;20.336;2022-09-01T04:00:26;409.60;2355.20
55331;DHT22;58851;42.984;20.336;2022-09-01T04:02:56;409.60;2355.20
55331;DHT22;58851;42.984;20.336;2022-09-01T04:05:28;409.80;2355.20
55331;DHT22;58851;42.984;20.336;2022-09-01T04:08:02;409.80;2355.20
55331;DHT22;58851;42.984;20.336;2022-09-01T04:10:29;409.90;2355.20
55331;DHT22;58851;42.984;20.336;2022-09-01T04:12:58;410.00;2355.20
55331;DHT22;58851;42.984;20.336;2022-09-01T04:15:25;410.10;2355.20
55331;DHT22;58851;42.984;20.336;2022-09-01T04:17:51;410.10;2355.20
55331;DHT22;58851;42.984;20.336;2022-09-01T04:20:39;410.20;2355.20
55331;DHT22;58851;42.984;20.336;2022-09-01T04:23:31;410.20;2355.20
55331;DHT22;58851;42.984;20.336;2022-09-01T04:28:36;410.30;2355.20
55331;DHT22;58851;42.984;20.336;2022-09-01T04:31:07;410.30;2355.20
55331;DHT22;58851;42.984;20.336;2022-09-01T04:33:37;410.30;2355.20
55331;DHT22;58851;42.984;20.336;2022-09-01T04:36:16;410.30;2355.20
55331;DHT22;58851;42.984;20.336;2022-09-01T04:38:50;410.30;2355.20
55331;DHT22;58851;42.984;20.336;2022-09-01T04:41:20;410.30;2355.20
55331;DHT22;58851;42.984;20.336;2022-09-01T04:43:47;410.30;2355.20
55331;DHT22;58851;42.984;20.336;2022-09-01T04:46:17;410.20;2355.20
55331;DHT22;58851;42.984;20.336;2022-09-01T04:48:43;409.90;2355.20
55331;DHT22;58851;42.984;20.336;2022-09-01T04:51:11;410.20;2355.20
55331;DHT22;58851;42.984;20.336;2022-09-01T04:53:40;410.30;2355.20
55331;DHT22;58851;42.984;20.336;2022-09-01T04:56:08;410.40;2355.20
55331;DHT22;58851;42.984;20.336;2022-09-01T04:58:35;410.40;2355.20
55331;DHT22;58851;42.984;20.336;2022-09-01T05:01:06;410.40;2355.20
55331;DHT22;58851;42.984;20.336;2022-09-01T05:03:38;410.30;2355.20
55331;DHT22;58851;42.984;20.336;2022-09-01T05:06:04;410.30;2355.20
55331;DHT22;58851;42.984;20.336;2022-09-01T05:08:30;410.50;2355.20
55331;DHT22;58851;42.984;20.336;2022-09-01T05:11:03;435.20;2355.20
55331;DHT22;58851;42.984;20.336;2022-09-01T05:13:33;435.20;2355.20
55331;DHT22;58851;42.984;20.336;2022-09-01T05:16:03;435.20;2355.20
55331;DHT22;58851;42.984;20.336;2022-09-01T05:18:30;435.30;2355.20
55331;DHT22;58851;42.984;20.336;2022-09-01T05:20:57;435.20;2355.20
55331;DHT22;58851;42.984;20.336;2022-09-01T05:23:23;435.20;2355.20
55331;DHT22;58851;42.984;20.336;2022-09-01T05:25:51;410.40;2355.20
55331;DHT22;58851;42.984;20.336;2022-09-01T05:28:20;410.50;2355.20
55331;DHT22;58851;42.984;20.336;2022-09-01T05:30:49;435.20;2355.20
55331;DHT22;58851;42.984;20.336;2022-09-01T05:33:19;435.30;2355.20
55331;DHT22;58851;42.984;20.336;2022-09-01T05:35:56;435.30;2355.20
55331;DHT22;58851;42.984;20.336;2022-09-01T05:38:24;435.30;2355.20
55331;DHT22;58851;42.984;20.336;2022-09-01T05:41:16;435.30;2355.20
55331;DHT22;58851;42.984;20.336;2022-09-01T05:43:46;435.30;2355.20
55331;DHT22;58851;42.984;20.336;2022-09-01T05:46:20;435.20;2355.20
55331;DHT22;58851;42.984;20.336;2022-09-01T05:48:48;435.30;2355.20
55331;DHT22;58851;42.984;20.336;2022-09-01T05:51:15;435.40;2355.20
55331;DHT22;58851;42.984;20.336;2022-09-01T05:53:45;435.50;2355.20
55331;DHT22;58851;42.984;20.336;2022-09-01T05:56:11;435.50;2355.20
55331;DHT22;58851;42.984;20.336;2022-09-01T05:58:39;435.50;2355.20
55331;DHT22;58851;42.984;20.336;2022-09-01T06:01:06;435.50;2355.20
55331;DHT22;58851;42.984;20.336;2022-09-01T06:03:33;435.70;2355.20
55331;DHT22;58851;42.984;20.336;2022-09-01T06:06:04;435.70;2355.20
55331;DHT22;58851;42.984;20.336;2022-09-01T06:08:34;435.80;2355.20
55331;DHT22;58851;42.984;20.336;2022-09-01T06:11:01;435.80;2355.20
55331;DHT22;58851;42.984;20.336;2022-09-01T06:13:38;435.80;2355.20
55331;DHT22;58851;42.984;20.336;2022-09-01T06:16:10;436.10;2355.20
55331;DHT22;58851;42.984;20.336;2022-09-01T06:18:37;460.80;2380.80
55331;DHT22;58851;42.984;20.336;2022-09-01T06:21:05;461.00;2380.80
55331;DHT22;58851;42.984;20.336;2022-09-01T06:23:33;436.10;2355.20
55331;DHT22;58851;42.984;20.336;2022-09-01T06:26:00;460.80;2380.80
55331;DHT22;58851;42.984;20.336;2022-09-01T06:28:28;460.80;2380.80
55331;DHT22;58851;42.984;20.336;2022-09-01T06:30:55;461.00;2380.80
55331;DHT22;58851;42.984;20.336;2022-09-01T06:33:22;461.10;2380.80
55331;DHT22;58851;42.984;20.336;2022-09-01T06:35:51;461.10;2380.80
55331;DHT22;58851;42.984;20.336;2022-09-01T06:38:18;461.30;2380.80
55331;DHT22;58851;42.984;20.336;2022-09-01T06:40:45;461.40;2380.80
55331;DHT22;58851;42.984;20.336;2022-09-01T06:43:11;461.40;2380.80
55331;DHT22;58851;42.984;20.336;2022-09-01T06:45:41;461.40;2380.80
55331;DHT22;58851;42.984;20.336;2022-09-01T06:48:07;461.60;2380.80
55331;DHT22;58851;42.984;20.336;2022-09-01T06:50:33;461.70;2380.80
55331;DHT22;58851;42.984;20.336;2022-09-01T06:53:00;486.50;2380.80
55331;DHT22;58851;42.984;20.336;2022-09-01T06:55:36;486.50;2380.80
55331;DHT22;58851;42.984;20.336;2022-09-01T06:58:07;486.50;2380.80
55331;DHT22;58851;42.984;20.336;2022-09-01T07:00:38;486.40;2380.80
55331;DHT22;58851;42.984;20.336;2022-09-01T07:03:08;486.50;2380.80
55331;DHT22;58851;42.984;20.336;2022-09-01T07:05:43;486.70;2380.80
55331;DHT22;58851;42.984;20.336;2022-09-01T07:08:10;486.90;2380.80
55331;DHT22;58851;42.984;20.336;2022-09-01T07:10:46;486.70;2380.80
55331;DHT22;58851;42.984;20.336;2022-09-01T07:13:20;486.50;2380.80
55331;DHT22;58851;42.984;20.336;2022-09-01T07:15:52;486.60;2380.80
55331;DHT22;58851;42.984;20.336;2022-09-01T07:18:21;486.50;2380.80
55331;DHT22;58851;42.984;20.336;2022-09-01T07:20:50;486.60;2380.80
55331;DHT22;58851;42.984;20.336;2022-09-01T07:23:17;486.70;2380.80
55331;DHT22;58851;42.984;20.336;2022-09-01T07:25:46;486.60;2380.80
55331;DHT22;58851;42.984;20.336;2022-09-01T07:28:13;486.60;2380.80
55331;DHT22;58851;42.984;20.336;2022-09-01T07:30:42;486.80;2380.80
55331;DHT22;58851;42.984;20.336;2022-09-01T07:33:11;487.00;2380.80
55331;DHT22;58851;42.984;20.336;2022-09-01T07:35:39;487.00;2380.80
55331;DHT22;58851;42.984;20.336;2022-09-01T07:38:05;487.10;2380.80
55331;DHT22;58851;42.984;20.336;2022-09-01T07:40:33;487.30;2380.80
55331;DHT22;58851;42.984;20.336;2022-09-01T07:43:03;512.30;2380.80
55331;DHT22;58851;42.984;20.336;2022-09-01T07:45:34;512.50;2380.80
55331;DHT22;58851;42.984;20.336;2022-09-01T07:48:03;512.80;2380.80
55331;DHT22;58851;42.984;20.336;2022-09-01T07:50:32;512.90;2380.80
55331;DHT22;58851;42.984;20.336;2022-09-01T07:52:58;537.60;2406.40
55331;DHT22;58851;42.984;20.336;2022-09-01T07:55:26;537.80;2406.40
55331;DHT22;58851;42.984;20.336;2022-09-01T07:57:53;538.10;2406.40
55331;DHT22;58851;42.984;20.336;2022-09-01T08:00:19;538.30;2406.40
55331;DHT22;58851;42.984;20.336;2022-09-01T08:02:47;538.40;2406.40
55331;DHT22;58851;42.984;20.336;2022-09-01T08:05:16;563.30;2432.00
55331;DHT22;58851;42.984;20.336;2022-09-01T08:07:45;563.50;2432.00
55331;DHT22;58851;42.984;20.336;2022-09-01T08:10:13;563.50;2432.00
55331;DHT22;58851;42.984;20.336;2022-09-01T08:12:40;563.40;2432.00
55331;DHT22;58851;42.984;20.336;2022-09-01T08:15:07;563.50;2432.00
55331;DHT22;58851;42.984;20.336;2022-09-01T08:17:35;563.60;2432.00
55331;DHT22;58851;42.984;20.336;2022-09-01T08:20:01;563.40;2432.00
55331;DHT22;58851;42.984;20.336;2022-09-01T08:22:28;563.40;2432.00
55331;DHT22;58851;42.984;20.336;2022-09-01T08:24:54;563.50;2432.00
55331;DHT22;58851;42.984;20.336;2022-09-01T08:27:20;563.60;2432.00
55331;DHT22;58851;42.984;20.336;2022-09-01T08:29:47;563.70;2432.00
55331;DHT22;58851;42.984;20.336;2022-09-01T08:32:13;564.00;2432.00
55331;DHT22;58851;42.984;20.336;2022-09-01T08:34:39;588.90;2432.00
55331;DHT22;58851;42.984;20.336;2022-09-01T08:37:05;589.10;2432.00
55331;DHT22;58851;42.984;20.336;2022-09-01T08:39:31;589.10;2432.00
55331;DHT22;58851;42.984;20.336;2022-09-01T08:44:58;589.20;2432.00
55331;DHT22;58851;42.984;20.336;2022-09-01T08:47:27;589.30;2432.00
55331;DHT22;58851;42.984;20.336;2022-09-01T08:49:53;589.40;2432.00
55331;DHT22;58851;42.984;20.336;2022-09-01T08:54:53;589.30;2432.00
55331;DHT22;58851;42.984;20.336;2022-09-01T08:57:23;589.30;2432.00
55331;DHT22;58851;42.984;20.336;2022-09-01T08:59:52;589.60;2432.00
55331;DHT22;58851;42.984;20.336;2022-09-01T09:10:46;614.90;2432.00
55331;DHT22;58851;42.984;20.336;2022-09-01T09:13:29;615.20;2432.00
55331;DHT22;58851;42.984;20.336;2022-09-01T09:16:01;640.00;2432.00
55331;DHT22;58851;42.984;20.336;2022-09-01T09:18:46;640.20;2432.00
55331;DHT22;58851;42.984;20.336;2022-09-01T09:24:09;640.70;2432.00
55331;DHT22;58851;42.984;20.336;2022-09-01T09:26:37;665.60;2432.00
55331;DHT22;58851;42.984;20.336;2022-09-01T09:29:03;665.80;2432.00
55331;DHT22;58851;42.984;20.336;2022-09-01T09:31:31;665.80;2432.00
55331;DHT22;58851;42.984;20.336;2022-09-01T09:33:58;665.90;2432.00
55331;DHT22;58851;42.984;20.336;2022-09-01T09:36:35;666.20;2432.00
55331;DHT22;58851;42.984;20.336;2022-09-01T09:39:16;666.10;2432.00
55331;DHT22;58851;42.984;20.336;2022-09-01T09:41:43;666.30;2432.00
55331;DHT22;58851;42.984;20.336;2022-09-01T09:44:28;666.40;2432.00
55331;DHT22;58851;42.984;20.336;2022-09-01T09:46:55;691.30;2432.00
55331;DHT22;58851;42.984;20.336;2022-09-01T09:49:32;691.40;2432.00
55331;DHT22;58851;42.984;20.336;2022-09-01T09:54:32;691.50;2355.20
55331;DHT22;58851;42.984;20.336;2022-09-01T09:57:17;691.60;2380.80
55331;DHT22;58851;42.984;20.336;2022-09-01T10:02:35;691.80;2355.20
55331;DHT22;58851;42.984;20.336;2022-09-01T10:05:25;691.80;2304.00
55331;DHT22;58851;42.984;20.336;2022-09-01T10:07:53;691.80;2227.20
55331;DHT22;58851;42.984;20.336;2022-09-01T10:10:31;691.90;2278.40
55331;DHT22;58851;42.984;20.336;2022-09-01T10:13:01;692.00;2329.60
55331;DHT22;58851;42.984;20.336;2022-09-01T10:15:29;692.10;2176.00
55331;DHT22;58851;42.984;20.336;2022-09-01T10:18:11;716.90;2176.00
55331;DHT22;58851;42.984;20.336;2022-09-01T10:20:44;717.10;2278.40
55331;DHT22;58851;42.984;20.336;2022-09-01T10:23:12;717.30;2227.20
55331;DHT22;58851;42.984;20.336;2022-09-01T10:25:39;717.30;2150.40
55331;DHT22;58851;42.984;20.336;2022-09-01T10:28:17;717.20;2150.40
55331;DHT22;58851;42.984;20.336;2022-09-01T10:30:45;717.20;2022.40
55331;DHT22;58851;42.984;20.336;2022-09-01T10:33:18;717.30;2048.00
55331;DHT22;58851;42.984;20.336;2022-09-01T10:35:48;717.50;2073.60
55331;DHT22;58851;42.984;20.336;2022-09-01T10:38:22;717.50;2048.00
55331;DHT22;58851;42.984;20.336;2022-09-01T10:40:51;717.60;1996.80
55331;DHT22;58851;42.984;20.336;2022-09-01T10:43:48;717.60;1945.60
55331;DHT22;58851;42.984;20.336;2022-09-01T10:48:51;742.40;1996.80
55331;DHT22;58851;42.984;20.336;2022-09-01T10:53:50;742.50;1843.20
55331;DHT22;58851;42.984;20.336;2022-09-01T10:59:08;742.40;1920.00
55331;DHT22;58851;42.984;20.336;2022-09-01T11:04:18;717.30;1766.40
55331;DHT22;58851;42.984;20.336;2022-09-01T11:14:24;717.00;1894.40
55331;DHT22;58851;42.984;20.336;2022-09-01T11:19:54;717.10;2022.40
55331;DHT22;58851;42.984;20.336;2022-09-01T11:22:36;717.10;1996.80
55331;DHT22;58851;42.984;20.336;2022-09-01T11:30:19;717.50;1996.80
55331;DHT22;58851;42.984;20.336;2022-09-01T11:32:49;717.60;1996.80
55331;DHT22;58851;42.984;20.336;2022-09-01T11:35:20;717.60;1945.60
55331;DHT22;58851;42.984;20.336;2022-09-01T11:37:52;717.60;1920.00
55331;DHT22;58851;42.984;20.336;2022-09-01T11:40:39;717.60;1920.00
55331;DHT22;58851;42.984;20.336;2022-09-01T11:43:15;717.60;1945.60
55331;DHT22;58851;42.984;20.336;2022-09-01T11:46:16;717.70;1920.00
55331;DHT22;58851;42.984;20.336;2022-09-01T11:48:47;742.40;1971.20
55331;DHT22;58851;42.984;20.336;2022-09-01T11:51:13;742.50;1920.00
55331;DHT22;58851;42.984;20.336;2022-09-01T11:53:41;742.50;1868.80
55331;DHT22;58851;42.984;20.336;2022-09-01T11:56:15;742.60;1894.40
55331;DHT22;58851;42.984;20.336;2022-09-01T11:58:41;742.60;1894.40
55331;DHT22;58851;42.984;20.336;2022-09-01T12:01:19;742.70;1843.20
55331;DHT22;58851;42.984;20.336;2022-09-01T12:03:46;742.80;1894.40
55331;DHT22;58851;42.984;20.336;2022-09-01T12:06:20;742.70;1843.20
55331;DHT22;58851;42.984;20.336;2022-09-01T12:08:56;742.40;1894.40
55331;DHT22;58851;42.984;20.336;2022-09-01T12:11:26;742.60;1920.00
55331;DHT22;58851;42.984;20.336;2022-09-01T12:14:01;742.60;1868.80
55331;DHT22;58851;42.984;20.336;2022-09-01T12:16:28;742.40;1868.80
55331;DHT22;58851;42.984;20.336;2022-09-01T12:18:56;742.40;1868.80
55331;DHT22;58851;42.984;20.336;2022-09-01T12:21:33;742.40;1920.00
55331;DHT22;58851;42.984;20.336;2022-09-01T12:24:22;742.40;1894.40
55331;DHT22;58851;42.984;20.336;2022-09-01T12:26:50;742.50;1945.60
55331;DHT22;58851;42.984;20.336;2022-09-01T12:29:19;717.70;1920.00
55331;DHT22;58851;42.984;20.336;2022-09-01T12:31:47;717.60;1971.20
55331;DHT22;58851;42.984;20.336;2022-09-01T12:39:45;742.40;1740.80
55331;DHT22;58851;42.984;20.336;2022-09-01T12:42:32;742.60;1766.40
55331;DHT22;58851;42.984;20.336;2022-09-01T12:45:02;742.90;1715.20
55331;DHT22;58851;42.984;20.336;2022-09-01T12:52:45;793.60;1689.60
55331;DHT22;58851;42.984;20.336;2022-09-01T12:55:16;794.30;1715.20
55331;DHT22;58851;42.984;20.336;2022-09-01T12:57:49;819.40;1638.40
55331;DHT22;58851;42.984;20.336;2022-09-01T13:00:28;819.90;1612.80
55331;DHT22;58851;42.984;20.336;2022-09-01T13:03:06;819.90;1638.40
55331;DHT22;58851;42.984;20.336;2022-09-01T13:05:43;820.00;1638.40
55331;DHT22;58851;42.984;20.336;2022-09-01T13:08:20;844.90;1612.80
55331;DHT22;58851;42.984;20.336;2022-09-01T13:10:49;845.30;1587.20
55331;DHT22;58851;42.984;20.336;2022-09-01T13:13:16;845.50;1510.40
55331;DHT22;58851;42.984;20.336;2022-09-01T13:15:48;845.70;1484.80
55331;DHT22;58851;42.984;20.336;2022-09-01T13:18:16;845.00;1459.20
55331;DHT22;58851;42.984;20.336;2022-09-01T13:20:42;845.00;1459.20
55331;DHT22;58851;42.984;20.336;2022-09-01T13:23:08;844.80;1484.80
55331;DHT22;58851;42.984;20.336;2022-09-01T13:25:35;820.10;1484.80
55331;DHT22;58851;42.984;20.336;2022-09-01T13:28:00;819.40;1459.20
55331;DHT22;58851;42.984;20.336;2022-09-01T13:30:28;794.40;1433.60
55331;DHT22;58851;42.984;20.336;2022-09-01T13:32:55;794.10;1433.60
55331;DHT22;58851;42.984;20.336;2022-09-01T13:35:22;793.60;1459.20
55331;DHT22;58851;42.984;20.336;2022-09-01T13:37:49;768.40;1459.20
55331;DHT22;58851;42.984;20.336;2022-09-01T13:40:17;768.30;1459.20
55331;DHT22;58851;42.984;20.336;2022-09-01T13:42:52;768.00;1484.80
55331;DHT22;58851;42.984;20.336;2022-09-01T13:45:20;743.20;1510.40
55331;DHT22;58851;42.984;20.336;2022-09-01T13:47:47;743.00;1536.00
55331;DHT22;58851;42.984;20.336;2022-09-01T13:50:15;742.90;1612.80
55331;DHT22;58851;42.984;20.336;2022-09-01T13:52:45;742.70;1689.60
55331;DHT22;58851;42.984;20.336;2022-09-01T13:55:14;742.50;1664.00
55331;DHT22;58851;42.984;20.336;2022-09-01T13:57:44;742.50;1715.20
55331;DHT22;58851;42.984;20.336;2022-09-01T14:00:14;742.40;1740.80
55331;DHT22;58851;42.984;20.336;2022-09-01T14:02:45;717.70;1740.80
55331;DHT22;58851;42.984;20.336;2022-09-01T14:05:35;717.50;1715.20
55331;DHT22;58851;42.984;20.336;2022-09-01T14:08:03;717.50;1740.80
55331;DHT22;58851;42.984;20.336;2022-09-01T14:10:30;717.30;1740.80
55331;DHT22;58851;42.984;20.336;2022-09-01T14:12:58;717.10;1766.40
55331;DHT22;58851;42.984;20.336;2022-09-01T14:15:25;717.00;1766.40
55331;DHT22;58851;42.984;20.336;2022-09-01T14:17:53;692.10;1766.40
55331;DHT22;58851;42.984;20.336;2022-09-01T14:20:27;691.90;1817.60
55331;DHT22;58851;42.984;20.336;2022-09-01T14:22:54;691.90;1792.00
55331;DHT22;58851;42.984;20.336;2022-09-01T14:25:20;691.50;1817.60
55331;DHT22;58851;42.984;20.336;2022-09-01T14:27:47;691.30;1894.40
55331;DHT22;58851;42.984;20.336;2022-09-01T14:30:23;666.40;2022.40
55331;DHT22;58851;42.984;20.336;2022-09-01T14:32:51;666.20;2150.40
55331;DHT22;58851;42.984;20.336;2022-09-01T14:35:19;665.90;2278.40
55331;DHT22;58851;42.984;20.336;2022-09-01T14:37:47;665.70;2406.40
55331;DHT22;58851;42.984;20.336;2022-09-01T14:40:17;640.90;2432.00
55331;DHT22;58851;42.984;20.336;2022-09-01T14:42:46;640.70;2432.00
55331;DHT22;58851;42.984;20.336;2022-09-01T14:45:15;640.60;2432.00
55331;DHT22;58851;42.984;20.336;2022-09-01T14:47:43;640.40;2432.00
55331;DHT22;58851;42.984;20.336;2022-09-01T14:50:10;640.30;2432.00
55331;DHT22;58851;42.984;20.336;2022-09-01T14:52:37;640.30;2432.00
55331;DHT22;58851;42.984;20.336;2022-09-01T14:55:03;640.20;2432.00
55331;DHT22;58851;42.984;20.336;2022-09-01T14:57:30;640.20;2432.00
55331;DHT22;58851;42.984;20.336;2022-09-01T14:59:58;640.10;2432.00
55331;DHT22;58851;42.984;20.336;2022-09-01T15:02:24;640.00;2432.00
55331;DHT22;58851;42.984;20.336;2022-09-01T15:04:52;615.20;2432.00
55331;DHT22;58851;42.984;20.336;2022-09-01T15:07:19;615.20;2432.00
55331;DHT22;58851;42.984;20.336;2022-09-01T15:09:45;615.10;2432.00
55331;DHT22;58851;42.984;20.336;2022-09-01T15:12:12;615.00;2432.00
55331;DHT22;58851;42.984;20.336;2022-09-01T15:14:38;614.90;2432.00
55331;DHT22;58851;42.984;20.336;2022-09-01T15:17:04;614.70;2432.00
55331;DHT22;58851;42.984;20.336;2022-09-01T15:19:31;614.60;2432.00
55331;DHT22;58851;42.984;20.336;2022-09-01T15:21:57;614.50;2432.00
55331;DHT22;58851;42.984;20.336;2022-09-01T15:24:22;614.50;2432.00
55331;DHT22;58851;42.984;20.336;2022-09-01T15:26:48;614.40;2432.00
55331;DHT22;58851;42.984;20.336;2022-09-01T15:29:14;589.60;2432.00
55331;DHT22;58851;42.984;20.336;2022-09-01T15:31:42;589.50;2432.00
55331;DHT22;58851;42.984;20.336;2022-09-01T15:34:09;589.40;2432.00
55331;DHT22;58851;42.984;20.336;2022-09-01T15:36:37;589.30;2432.00
55331;DHT22;58851;42.984;20.336;2022-09-01T15:39:09;589.10;2432.00
55331;DHT22;58851;42.984;20.336;2022-09-01T15:41:36;589.10;2432.00
55331;DHT22;58851;42.984;20.336;2022-09-01T15:44:03;589.10;2432.00
55331;DHT22;58851;42.984;20.336;2022-09-01T15:46:34;588.80;2432.00
55331;DHT22;58851;42.984;20.336;2022-09-01T15:49:08;563.80;2432.00
55331;DHT22;58851;42.984;20.336;2022-09-01T15:51:36;563.30;2432.00
55331;DHT22;58851;42.984;20.336;2022-09-01T15:54:22;538.40;2406.40
55331;DHT22;58851;42.984;20.336;2022-09-01T15:56:49;538.20;2406.40